sensor_id;sensor_type;location;lat;lon;timestamp;P1;durP1;ratioP1;P2;durP2;ratioP2
43801;SDS011;29429;51.074;13.764;2022-08-30T00:01:22;9.20;;;6.40;;
43801;SDS011;29429;51.074;13.764;2022-08-30T00:03:53;9.75;;;6.43;;
43801;SDS011;29429;51.074;13.764;2022-08-30T00:06:22;9.18;;;5.68;;
43801;SDS011;29429;51.074;13.764;2022-08-30T00:08:50;10.48;;;5.82;;
43801;SDS011;29429;51.074;13.764;2022-08-30T00:11:22;10.73;;;6.28;;
43801;SDS011;29429;51.074;13.764;2022-08-30T00:13:53;7.15;;;5.93;;
43801;SDS011;29429;51.074;13.764;2022-08-30T00:16:23;8.45;;;6.10;;
43801;SDS011;29429;51.074;13.764;2022-08-30T00:18:51;10.32;;;6.35;;
43801;SDS011;29429;51.074;13.764;2022-08-30T00:21:19;8.15;;;6.28;;
43801;SDS011;29429;51.074;13.764;2022-08-30T00:23:47;11.77;;;6.50;;
43801;SDS011;29429;51.074;13.764;2022-08-30T00:26:13;9.57;;;6.30;;
43801;SDS011;29429;51.074;13.764;2022-08-30T00:28:40;12.95;;;6.30;;
43801;SDS011;29429;51.074;13.764;2022-08-30T00:31:07;11.48;;;6.00;;
43801;SDS011;29429;51.074;13.764;2022-08-30T00:33:38;11.07;;;6.28;;
43801;SDS011;29429;51.074;13.764;2022-08-30T00:36:06;8.55;;;6.50;;
43801;SDS011;29429;51.074;13.764;2022-08-30T00:38:33;8.50;;;6.50;;
43801;SDS011;29429;51.074;13.764;2022-08-30T00:41:00;10.00;;;6.47;;
43801;SDS011;29429;51.074;13.764;2022-08-30T00:43:27;10.15;;;6.20;;
43801;SDS011;29429;51.074;13.764;2022-08-30T00:46:01;9.25;;;5.68;;
43801;SDS011;29429;51.074;13.764;2022-08-30T00:48:32;9.43;;;6.03;;
43801;SDS011;29429;51.074;13.764;2022-08-30T00:51:06;9.90;;;6.13;;
43801;SDS011;29429;51.074;13.764;2022-08-30T00:53:38;10.35;;;6.60;;
43801;SDS011;29429;51.074;13.764;2022-08-30T00:56:13;9.90;;;6.15;;
43801;SDS011;29429;51.074;13.764;2022-08-30T00:58:45;9.70;;;6.78;;
43801;SDS011;29429;51.074;13.764;2022-08-30T01:01:17;9.07;;;6.45;;
43801;SDS011;29429;51.074;13.764;2022-08-30T01:03:45;10.18;;;6.55;;
43801;SDS011;29429;51.074;13.764;2022-08-30T01:06:14;8.57;;;6.32;;
43801;SDS011;29429;51.074;13.764;2022-08-30T01:08:42;11.38;;;6.22;;
43801;SDS011;29429;51.074;13.764;2022-08-30T01:11:12;8.18;;;5.95;;
43801;SDS011;29429;51.074;13.764;2022-08-30T01:13:43;10.80;;;5.97;;
43801;SDS011;29429;51.074;13.764;2022-08-30T01:16:12;9.63;;;5.90;;
43801;SDS011;29429;51.074;13.764;2022-08-30T01:18:41;10.73;;;6.00;;
43801;SDS011;29429;51.074;13.764;2022-08-30T01:21:18;11.48;;;6.82;;
43801;SDS011;29429;51.074;13.764;2022-08-30T01:23:56;10.55;;;6.25;;
43801;SDS011;29429;51.074;13.764;2022-08-30T01:26:26;9.73;;;5.60;;
43801;SDS011;29429;51.074;13.764;2022-08-30T01:28:56;11.25;;;5.35;;
43801;SDS011;29429;51.074;13.764;2022-08-30T01:31:30;9.63;;;5.75;;
43801;SDS011;29429;51.074;13.764;2022-08-30T01:33:59;10.27;;;6.28;;
43801;SDS011;29429;51.074;13.764;2022-08-30T01:36:35;9.60;;;5.63;;
43801;SDS011;29429;51.074;13.764;2022-08-30T01:39:11;11.32;;;6.30;;
43801;SDS011;29429;51.074;13.764;2022-08-30T01:41:41;8.70;;;6.50;;
43801;SDS011;29429;51.074;13.764;2022-08-30T01:44:09;9.52;;;6.40;;
43801;SDS011;29429;51.074;13.764;2022-08-30T01:46:39;9.15;;;6.07;;
43801;SDS011;29429;51.074;13.764;2022-08-30T01:49:13;9.13;;;6.03;;
43801;SDS011;29429;51.074;13.764;2022-08-30T01:51:52;7.95;;;5.43;;
43801;SDS011;29429;51.074;13.764;2022-08-30T01:54:27;9.82;;;5.75;;
43801;SDS011;29429;51.074;13.764;2022-08-30T01:57:04;7.55;;;5.55;;
43801;SDS011;29429;51.074;13.764;2022-08-30T01:59:38;7.03;;;5.50;;
43801;SDS011;29429;51.074;13.764;2022-08-30T02:02:08;8.70;;;5.93;;
43801;SDS011;29429;51.074;13.764;2022-08-30T02:04:35;11.50;;;7.05;;
43801;SDS011;29429;51.074;13.764;2022-08-30T02:07:03;11.20;;;6.35;;
43801;SDS011;29429;51.074;13.764;2022-08-30T02:09:30;10.98;;;6.25;;
43801;SDS011;29429;51.074;13.764;2022-08-30T02:11:57;11.98;;;6.25;;
43801;SDS011;29429;51.074;13.764;2022-08-30T02:14:24;11.27;;;6.38;;
43801;SDS011;29429;51.074;13.764;2022-08-30T02:16:51;8.50;;;5.97;;
43801;SDS011;29429;51.074;13.764;2022-08-30T02:19:18;10.35;;;5.70;;
43801;SDS011;29429;51.074;13.764;2022-08-30T02:21:45;8.43;;;5.78;;
43801;SDS011;29429;51.074;13.764;2022-08-30T02:24:12;10.63;;;5.55;;
43801;SDS011;29429;51.074;13.764;2022-08-30T02:26:39;15.75;;;5.85;;
43801;SDS011;29429;51.074;13.764;2022-08-30T02:29:07;12.48;;;6.13;;
43801;SDS011;29429;51.074;13.764;2022-08-30T02:31:34;7.93;;;5.22;;
43801;SDS011;29429;51.074;13.764;2022-08-30T02:34:01;12.63;;;6.07;;
43801;SDS011;29429;51.074;13.764;2022-08-30T02:36:29;7.35;;;5.43;;
43801;SDS011;29429;51.074;13.764;2022-08-30T02:38:56;11.00;;;5.97;;
43801;SDS011;29429;51.074;13.764;2022-08-30T02:41:23;10.05;;;5.75;;
43801;SDS011;29429;51.074;13.764;2022-08-30T02:43:50;7.40;;;5.93;;
43801;SDS011;29429;51.074;13.764;2022-08-30T02:46:17;10.05;;;6.47;;
43801;SDS011;29429;51.074;13.764;2022-08-30T02:48:45;10.43;;;5.90;;
43801;SDS011;29429;51.074;13.764;2022-08-30T02:51:12;9.77;;;6.57;;
43801;SDS011;29429;51.074;13.764;2022-08-30T02:53:41;8.63;;;5.80;;
43801;SDS011;29429;51.074;13.764;2022-08-30T02:56:10;8.55;;;6.10;;
43801;SDS011;29429;51.074;13.764;2022-08-30T02:58:39;13.07;;;5.43;;
43801;SDS011;29429;51.074;13.764;2022-08-30T03:01:08;8.38;;;6.10;;
43801;SDS011;29429;51.074;13.764;2022-08-30T03:03:39;7.10;;;5.88;;
43801;SDS011;29429;51.074;13.764;2022-08-30T03:06:08;9.07;;;5.68;;
43801;SDS011;29429;51.074;13.764;2022-08-30T03:08:35;6.80;;;5.55;;
43801;SDS011;29429;51.074;13.764;2022-08-30T03:11:03;14.30;;;7.43;;
43801;SDS011;29429;51.074;13.764;2022-08-30T03:13:31;11.45;;;6.38;;
43801;SDS011;29429;51.074;13.764;2022-08-30T03:15:58;9.90;;;6.32;;
43801;SDS011;29429;51.074;13.764;2022-08-30T03:18:25;8.88;;;6.18;;
43801;SDS011;29429;51.074;13.764;2022-08-30T03:20:52;8.45;;;5.63;;
43801;SDS011;29429;51.074;13.764;2022-08-30T03:23:20;9.07;;;6.03;;
43801;SDS011;29429;51.074;13.764;2022-08-30T03:25:49;7.85;;;6.00;;
43801;SDS011;29429;51.074;13.764;2022-08-30T03:28:16;8.10;;;5.88;;
43801;SDS011;29429;51.074;13.764;2022-08-30T03:30:43;10.10;;;6.43;;
43801;SDS011;29429;51.074;13.764;2022-08-30T03:33:10;9.18;;;5.88;;
43801;SDS011;29429;51.074;13.764;2022-08-30T03:35:37;9.52;;;6.28;;
43801;SDS011;29429;51.074;13.764;2022-08-30T03:38:04;8.68;;;6.10;;
43801;SDS011;29429;51.074;13.764;2022-08-30T03:40:31;8.40;;;7.18;;
43801;SDS011;29429;51.074;13.764;2022-08-30T03:42:58;8.63;;;5.75;;
43801;SDS011;29429;51.074;13.764;2022-08-30T03:45:26;9.70;;;6.78;;
43801;SDS011;29429;51.074;13.764;2022-08-30T03:47:53;9.38;;;6.63;;
43801;SDS011;29429;51.074;13.764;2022-08-30T03:50:20;11.48;;;6.28;;
43801;SDS011;29429;51.074;13.764;2022-08-30T03:52:47;9.88;;;6.13;;
43801;SDS011;29429;51.074;13.764;2022-08-30T03:55:14;8.15;;;5.97;;
43801;SDS011;29429;51.074;13.764;2022-08-30T03:57:41;9.20;;;6.28;;
43801;SDS011;29429;51.074;13.764;2022-08-30T04:00:09;10.27;;;6.38;;
43801;SDS011;29429;51.074;13.764;2022-08-30T04:02:39;8.25;;;6.20;;
43801;SDS011;29429;51.074;13.764;2022-08-30T04:05:07;9.85;;;5.93;;
43801;SDS011;29429;51.074;13.764;2022-08-30T04:07:36;9.77;;;6.20;;
43801;SDS011;29429;51.074;13.764;2022-08-30T04:10:04;7.65;;;5.72;;
43801;SDS011;29429;51.074;13.764;2022-08-30T04:12:33;8.18;;;5.78;;
43801;SDS011;29429;51.074;13.764;2022-08-30T04:15:03;7.35;;;5.43;;
43801;SDS011;29429;51.074;13.764;2022-08-30T04:17:31;7.57;;;6.07;;
43801;SDS011;29429;51.074;13.764;2022-08-30T04:19:58;13.93;;;7.03;;
43801;SDS011;29429;51.074;13.764;2022-08-30T04:22:25;11.77;;;6.72;;
43801;SDS011;29429;51.074;13.764;2022-08-30T04:24:52;8.27;;;6.65;;
43801;SDS011;29429;51.074;13.764;2022-08-30T04:27:19;9.43;;;6.80;;
43801;SDS011;29429;51.074;13.764;2022-08-30T04:29:46;10.80;;;6.88;;
43801;SDS011;29429;51.074;13.764;2022-08-30T04:32:13;9.70;;;6.70;;
43801;SDS011;29429;51.074;13.764;2022-08-30T04:34:42;8.32;;;6.07;;
43801;SDS011;29429;51.074;13.764;2022-08-30T04:37:09;10.60;;;6.03;;
43801;SDS011;29429;51.074;13.764;2022-08-30T04:39:36;11.05;;;6.60;;
43801;SDS011;29429;51.074;13.764;2022-08-30T04:42:03;9.38;;;6.53;;
43801;SDS011;29429;51.074;13.764;2022-08-30T04:44:31;8.07;;;5.55;;
43801;SDS011;29429;51.074;13.764;2022-08-30T04:46:59;9.95;;;6.13;;
43801;SDS011;29429;51.074;13.764;2022-08-30T04:49:26;10.40;;;6.40;;
43801;SDS011;29429;51.074;13.764;2022-08-30T04:51:53;11.85;;;6.97;;
43801;SDS011;29429;51.074;13.764;2022-08-30T04:54:20;10.48;;;6.55;;
43801;SDS011;29429;51.074;13.764;2022-08-30T04:56:47;10.70;;;6.45;;
43801;SDS011;29429;51.074;13.764;2022-08-30T04:59:14;12.82;;;6.03;;
43801;SDS011;29429;51.074;13.764;2022-08-30T05:01:41;9.18;;;6.03;;
43801;SDS011;29429;51.074;13.764;2022-08-30T05:04:11;13.00;;;6.60;;
43801;SDS011;29429;51.074;13.764;2022-08-30T05:06:40;10.00;;;6.32;;
43801;SDS011;29429;51.074;13.764;2022-08-30T05:09:07;10.82;;;6.80;;
43801;SDS011;29429;51.074;13.764;2022-08-30T05:11:34;11.05;;;7.18;;
43801;SDS011;29429;51.074;13.764;2022-08-30T05:14:03;8.50;;;6.70;;
43801;SDS011;29429;51.074;13.764;2022-08-30T05:16:31;9.80;;;6.68;;
43801;SDS011;29429;51.074;13.764;2022-08-30T05:18:58;8.90;;;6.60;;
43801;SDS011;29429;51.074;13.764;2022-08-30T05:21:25;9.30;;;6.80;;
43801;SDS011;29429;51.074;13.764;2022-08-30T05:23:55;9.02;;;6.18;;
43801;SDS011;29429;51.074;13.764;2022-08-30T05:26:29;8.77;;;6.30;;
43801;SDS011;29429;51.074;13.764;2022-08-30T05:28:59;9.55;;;6.10;;
43801;SDS011;29429;51.074;13.764;2022-08-30T05:31:28;10.65;;;6.18;;
43801;SDS011;29429;51.074;13.764;2022-08-30T05:33:58;9.95;;;5.85;;
43801;SDS011;29429;51.074;13.764;2022-08-30T05:36:26;13.32;;;7.88;;
43801;SDS011;29429;51.074;13.764;2022-08-30T05:38:56;9.25;;;6.38;;
43801;SDS011;29429;51.074;13.764;2022-08-30T05:41:24;12.18;;;7.05;;
43801;SDS011;29429;51.074;13.764;2022-08-30T05:43:56;9.38;;;6.15;;
43801;SDS011;29429;51.074;13.764;2022-08-30T05:46:26;8.82;;;6.28;;
43801;SDS011;29429;51.074;13.764;2022-08-30T05:49:03;8.48;;;6.28;;
43801;SDS011;29429;51.074;13.764;2022-08-30T05:51:33;9.93;;;6.00;;
43801;SDS011;29429;51.074;13.764;2022-08-30T05:54:09;8.75;;;6.28;;
43801;SDS011;29429;51.074;13.764;2022-08-30T05:56:39;11.80;;;6.15;;
43801;SDS011;29429;51.074;13.764;2022-08-30T05:59:07;9.95;;;6.10;;
43801;SDS011;29429;51.074;13.764;2022-08-30T06:01:36;9.27;;;6.20;;
43801;SDS011;29429;51.074;13.764;2022-08-30T06:04:07;8.82;;;6.30;;
43801;SDS011;29429;51.074;13.764;2022-08-30T06:06:38;8.57;;;5.93;;
43801;SDS011;29429;51.074;13.764;2022-08-30T06:09:08;9.93;;;6.20;;
43801;SDS011;29429;51.074;13.764;2022-08-30T06:11:37;7.60;;;5.10;;
43801;SDS011;29429;51.074;13.764;2022-08-30T06:14:04;7.22;;;5.63;;
43801;SDS011;29429;51.074;13.764;2022-08-30T06:16:32;7.15;;;5.50;;
43801;SDS011;29429;51.074;13.764;2022-08-30T06:19:01;10.70;;;6.05;;
43801;SDS011;29429;51.074;13.764;2022-08-30T06:21:29;7.63;;;5.93;;
43801;SDS011;29429;51.074;13.764;2022-08-30T06:24:02;9.73;;;6.20;;
43801;SDS011;29429;51.074;13.764;2022-08-30T06:26:35;9.18;;;6.43;;
43801;SDS011;29429;51.074;13.764;2022-08-30T06:29:09;7.93;;;5.93;;
43801;SDS011;29429;51.074;13.764;2022-08-30T06:31:39;7.85;;;5.53;;
43801;SDS011;29429;51.074;13.764;2022-08-30T06:34:06;8.02;;;6.30;;
43801;SDS011;29429;51.074;13.764;2022-08-30T06:36:34;6.40;;;5.28;;
43801;SDS011;29429;51.074;13.764;2022-08-30T06:39:02;13.80;;;6.30;;
43801;SDS011;29429;51.074;13.764;2022-08-30T06:41:30;6.47;;;4.85;;
43801;SDS011;29429;51.074;13.764;2022-08-30T06:44:09;8.00;;;5.93;;
43801;SDS011;29429;51.074;13.764;2022-08-30T06:46:37;7.43;;;5.75;;
43801;SDS011;29429;51.074;13.764;2022-08-30T06:49:05;10.20;;;5.07;;
43801;SDS011;29429;51.074;13.764;2022-08-30T06:51:35;9.60;;;5.45;;
43801;SDS011;29429;51.074;13.764;2022-08-30T06:54:06;8.57;;;5.53;;
43801;SDS011;29429;51.074;13.764;2022-08-30T06:56:37;7.93;;;5.55;;
43801;SDS011;29429;51.074;13.764;2022-08-30T06:59:23;7.85;;;5.43;;
43801;SDS011;29429;51.074;13.764;2022-08-30T07:01:52;8.43;;;5.28;;
43801;SDS011;29429;51.074;13.764;2022-08-30T07:04:20;6.10;;;4.88;;
43801;SDS011;29429;51.074;13.764;2022-08-30T07:06:47;10.63;;;5.40;;
43801;SDS011;29429;51.074;13.764;2022-08-30T07:09:13;9.40;;;5.28;;
43801;SDS011;29429;51.074;13.764;2022-08-30T07:11:40;8.60;;;5.18;;
43801;SDS011;29429;51.074;13.764;2022-08-30T07:14:07;7.45;;;4.90;;
43801;SDS011;29429;51.074;13.764;2022-08-30T07:16:34;9.05;;;4.97;;
43801;SDS011;29429;51.074;13.764;2022-08-30T07:19:02;9.90;;;5.22;;
43801;SDS011;29429;51.074;13.764;2022-08-30T07:21:34;6.60;;;4.88;;
43801;SDS011;29429;51.074;13.764;2022-08-30T07:24:08;7.22;;;4.47;;
43801;SDS011;29429;51.074;13.764;2022-08-30T07:26:39;5.88;;;4.90;;
43801;SDS011;29429;51.074;13.764;2022-08-30T07:29:12;6.95;;;4.65;;
43801;SDS011;29429;51.074;13.764;2022-08-30T07:31:40;7.05;;;5.00;;
43801;SDS011;29429;51.074;13.764;2022-08-30T07:34:07;9.40;;;5.50;;
43801;SDS011;29429;51.074;13.764;2022-08-30T07:36:36;8.98;;;5.03;;
43801;SDS011;29429;51.074;13.764;2022-08-30T07:39:05;5.22;;;4.40;;
43801;SDS011;29429;51.074;13.764;2022-08-30T07:41:34;7.68;;;4.38;;
43801;SDS011;29429;51.074;13.764;2022-08-30T07:44:05;9.77;;;5.07;;
43801;SDS011;29429;51.074;13.764;2022-08-30T07:46:33;6.60;;;4.85;;
43801;SDS011;29429;51.074;13.764;2022-08-30T07:49:03;4.57;;;4.13;;
43801;SDS011;29429;51.074;13.764;2022-08-30T07:51:36;7.43;;;4.83;;
43801;SDS011;29429;51.074;13.764;2022-08-30T07:54:06;7.50;;;4.80;;
43801;SDS011;29429;51.074;13.764;2022-08-30T07:56:34;6.18;;;4.75;;
43801;SDS011;29429;51.074;13.764;2022-08-30T07:59:01;7.30;;;4.07;;
43801;SDS011;29429;51.074;13.764;2022-08-30T08:01:28;5.35;;;4.43;;
43801;SDS011;29429;51.074;13.764;2022-08-30T08:03:55;5.25;;;3.75;;
43801;SDS011;29429;51.074;13.764;2022-08-30T08:06:23;8.57;;;4.13;;
43801;SDS011;29429;51.074;13.764;2022-08-30T08:08:50;5.70;;;4.07;;
43801;SDS011;29429;51.074;13.764;2022-08-30T08:11:21;5.75;;;4.22;;
43801;SDS011;29429;51.074;13.764;2022-08-30T08:13:56;5.95;;;4.38;;
43801;SDS011;29429;51.074;13.764;2022-08-30T08:16:25;5.95;;;3.95;;
43801;SDS011;29429;51.074;13.764;2022-08-30T08:18:54;8.88;;;4.80;;
43801;SDS011;29429;51.074;13.764;2022-08-30T08:21:22;7.30;;;4.55;;
43801;SDS011;29429;51.074;13.764;2022-08-30T08:23:50;8.32;;;4.57;;
43801;SDS011;29429;51.074;13.764;2022-08-30T08:26:18;6.22;;;4.38;;
43801;SDS011;29429;51.074;13.764;2022-08-30T08:28:46;8.68;;;4.22;;
43801;SDS011;29429;51.074;13.764;2022-08-30T08:31:21;6.88;;;4.28;;
43801;SDS011;29429;51.074;13.764;2022-08-30T08:33:59;6.22;;;3.90;;
43801;SDS011;29429;51.074;13.764;2022-08-30T08:36:29;5.00;;;3.95;;
43801;SDS011;29429;51.074;13.764;2022-08-30T08:38:58;7.97;;;4.57;;
43801;SDS011;29429;51.074;13.764;2022-08-30T08:47:11;4.80;;;4.15;;
43801;SDS011;29429;51.074;13.764;2022-08-30T08:49:49;6.85;;;4.25;;
43801;SDS011;29429;51.074;13.764;2022-08-30T08:52:30;5.43;;;4.15;;
43801;SDS011;29429;51.074;13.764;2022-08-30T08:55:26;7.03;;;3.78;;
43801;SDS011;29429;51.074;13.764;2022-08-30T08:57:55;7.25;;;4.03;;
43801;SDS011;29429;51.074;13.764;2022-08-30T09:00:23;8.10;;;4.18;;
43801;SDS011;29429;51.074;13.764;2022-08-30T09:03:00;8.05;;;3.70;;
43801;SDS011;29429;51.074;13.764;2022-08-30T09:05:37;5.80;;;3.95;;
43801;SDS011;29429;51.074;13.764;2022-08-30T09:08:07;4.72;;;3.50;;
43801;SDS011;29429;51.074;13.764;2022-08-30T09:10:40;5.40;;;3.58;;
43801;SDS011;29429;51.074;13.764;2022-08-30T09:13:23;3.70;;;3.30;;
43801;SDS011;29429;51.074;13.764;2022-08-30T09:15:53;8.13;;;3.97;;
43801;SDS011;29429;51.074;13.764;2022-08-30T09:18:44;4.93;;;3.47;;
43801;SDS011;29429;51.074;13.764;2022-08-30T09:21:21;6.68;;;3.70;;
43801;SDS011;29429;51.074;13.764;2022-08-30T09:23:58;9.68;;;3.78;;
43801;SDS011;29429;51.074;13.764;2022-08-30T09:26:31;8.30;;;3.80;;
43801;SDS011;29429;51.074;13.764;2022-08-30T09:29:03;8.68;;;3.80;;
43801;SDS011;29429;51.074;13.764;2022-08-30T09:31:48;6.72;;;3.17;;
43801;SDS011;29429;51.074;13.764;2022-08-30T09:34:39;4.97;;;3.67;;
43801;SDS011;29429;51.074;13.764;2022-08-30T09:37:20;9.00;;;3.70;;
43801;SDS011;29429;51.074;13.764;2022-08-30T09:39:59;5.10;;;3.65;;
43801;SDS011;29429;51.074;13.764;2022-08-30T09:42:28;4.57;;;3.88;;
43801;SDS011;29429;51.074;13.764;2022-08-30T09:44:56;4.38;;;2.92;;
43801;SDS011;29429;51.074;13.764;2022-08-30T09:47:37;8.38;;;3.60;;
43801;SDS011;29429;51.074;13.764;2022-08-30T09:52:49;7.22;;;3.85;;
43801;SDS011;29429;51.074;13.764;2022-08-30T10:01:17;5.55;;;3.55;;
43801;SDS011;29429;51.074;13.764;2022-08-30T10:07:33;7.63;;;3.63;;
43801;SDS011;29429;51.074;13.764;2022-08-30T10:10:33;7.68;;;3.53;;
43801;SDS011;29429;51.074;13.764;2022-08-30T10:25:25;2.90;;;2.55;;
43801;SDS011;29429;51.074;13.764;2022-08-30T10:28:02;4.70;;;2.70;;
43801;SDS011;29429;51.074;13.764;2022-08-30T10:30:37;4.30;;;2.50;;
43801;SDS011;29429;51.074;13.764;2022-08-30T10:33:46;3.92;;;2.95;;
43801;SDS011;29429;51.074;13.764;2022-08-30T10:36:12;4.55;;;3.15;;
43801;SDS011;29429;51.074;13.764;2022-08-30T10:38:43;4.63;;;2.88;;
43801;SDS011;29429;51.074;13.764;2022-08-30T10:49:34;3.25;;;2.30;;
43801;SDS011;29429;51.074;13.764;2022-08-30T10:57:39;2.63;;;2.00;;
43801;SDS011;29429;51.074;13.764;2022-08-30T11:00:10;3.33;;;2.10;;
43801;SDS011;29429;51.074;13.764;2022-08-30T11:02:55;3.83;;;2.10;;
43801;SDS011;29429;51.074;13.764;2022-08-30T11:08:49;4.60;;;2.10;;
43801;SDS011;29429;51.074;13.764;2022-08-30T11:14:46;3.55;;;2.10;;
43801;SDS011;29429;51.074;13.764;2022-08-30T11:17:28;5.97;;;3.42;;
43801;SDS011;29429;51.074;13.764;2022-08-30T11:20:06;4.32;;;2.13;;
43801;SDS011;29429;51.074;13.764;2022-08-30T11:25:58;4.53;;;2.70;;
43801;SDS011;29429;51.074;13.764;2022-08-30T11:39:34;5.00;;;2.05;;
43801;SDS011;29429;51.074;13.764;2022-08-30T11:42:31;3.30;;;2.00;;
43801;SDS011;29429;51.074;13.764;2022-08-30T11:47:57;4.63;;;2.20;;
43801;SDS011;29429;51.074;13.764;2022-08-30T12:16:12;7.70;;;2.30;;
43801;SDS011;29429;51.074;13.764;2022-08-30T12:18:52;5.18;;;2.53;;
43801;SDS011;29429;51.074;13.764;2022-08-30T12:21:31;4.07;;;2.80;;
43801;SDS011;29429;51.074;13.764;2022-08-30T12:26:52;9.13;;;3.08;;
43801;SDS011;29429;51.074;13.764;2022-08-30T12:31:57;8.57;;;4.65;;
43801;SDS011;29429;51.074;13.764;2022-08-30T12:34:34;7.78;;;3.47;;
43801;SDS011;29429;51.074;13.764;2022-08-30T12:42:39;14.13;;;3.35;;
43801;SDS011;29429;51.074;13.764;2022-08-30T12:45:15;6.82;;;3.20;;
43801;SDS011;29429;51.074;13.764;2022-08-30T12:47:52;4.63;;;3.08;;
43801;SDS011;29429;51.074;13.764;2022-08-30T12:50:27;5.00;;;3.08;;
43801;SDS011;29429;51.074;13.764;2022-08-30T12:53:30;7.57;;;3.50;;
43801;SDS011;29429;51.074;13.764;2022-08-30T12:56:08;7.07;;;3.20;;
43801;SDS011;29429;51.074;13.764;2022-08-30T13:01:26;6.10;;;3.03;;
43801;SDS011;29429;51.074;13.764;2022-08-30T13:06:56;6.95;;;3.88;;
43801;SDS011;29429;51.074;13.764;2022-08-30T13:09:28;5.75;;;2.95;;
43801;SDS011;29429;51.074;13.764;2022-08-30T13:12:22;5.50;;;2.90;;
43801;SDS011;29429;51.074;13.764;2022-08-30T13:14:48;4.93;;;2.80;;
43801;SDS011;29429;51.074;13.764;2022-08-30T13:22:35;4.55;;;2.53;;
43801;SDS011;29429;51.074;13.764;2022-08-30T13:25:07;5.80;;;2.42;;
43801;SDS011;29429;51.074;13.764;2022-08-30T13:27:37;4.35;;;2.65;;
43801;SDS011;29429;51.074;13.764;2022-08-30T13:30:14;5.10;;;2.95;;
43801;SDS011;29429;51.074;13.764;2022-08-30T13:32:41;4.05;;;3.00;;
43801;SDS011;29429;51.074;13.764;2022-08-30T13:35:09;4.85;;;2.38;;
43801;SDS011;29429;51.074;13.764;2022-08-30T13:37:37;3.50;;;2.53;;
43801;SDS011;29429;51.074;13.764;2022-08-30T13:40:16;6.30;;;2.63;;
43801;SDS011;29429;51.074;13.764;2022-08-30T13:42:45;4.57;;;2.60;;
43801;SDS011;29429;51.074;13.764;2022-08-30T13:45:12;3.95;;;2.33;;
43801;SDS011;29429;51.074;13.764;2022-08-30T13:48:02;5.07;;;2.17;;
43801;SDS011;29429;51.074;13.764;2022-08-30T13:50:31;5.00;;;2.20;;
43801;SDS011;29429;51.074;13.764;2022-08-30T13:52:58;8.13;;;2.75;;
43801;SDS011;29429;51.074;13.764;2022-08-30T13:55:26;4.70;;;2.47;;
43801;SDS011;29429;51.074;13.764;2022-08-30T13:57:53;5.07;;;2.30;;
43801;SDS011;29429;51.074;13.764;2022-08-30T14:00:22;4.13;;;2.10;;
43801;SDS011;29429;51.074;13.764;2022-08-30T14:02:50;3.55;;;2.20;;
43801;SDS011;29429;51.074;13.764;2022-08-30T14:05:24;2.15;;;1.77;;
43801;SDS011;29429;51.074;13.764;2022-08-30T14:08:19;4.15;;;2.10;;
43801;SDS011;29429;51.074;13.764;2022-08-30T14:11:10;3.03;;;2.22;;
43801;SDS011;29429;51.074;13.764;2022-08-30T14:13:43;2.95;;;2.00;;
43801;SDS011;29429;51.074;13.764;2022-08-30T14:16:32;3.17;;;2.20;;
43801;SDS011;29429;51.074;13.764;2022-08-30T14:19:01;2.83;;;1.80;;
43801;SDS011;29429;51.074;13.764;2022-08-30T14:21:31;3.90;;;2.22;;
43801;SDS011;29429;51.074;13.764;2022-08-30T14:23:58;2.80;;;2.00;;
43801;SDS011;29429;51.074;13.764;2022-08-30T14:26:27;3.78;;;2.38;;
43801;SDS011;29429;51.074;13.764;2022-08-30T14:29:08;3.25;;;1.95;;
43801;SDS011;29429;51.074;13.764;2022-08-30T14:31:38;2.63;;;2.10;;
43801;SDS011;29429;51.074;13.764;2022-08-30T14:34:06;2.92;;;1.77;;
43801;SDS011;29429;51.074;13.764;2022-08-30T14:36:37;4.32;;;2.00;;
43801;SDS011;29429;51.074;13.764;2022-08-30T14:39:08;2.63;;;1.92;;
43801;SDS011;29429;51.074;13.764;2022-08-30T14:41:41;2.60;;;2.22;;
43801;SDS011;29429;51.074;13.764;2022-08-30T14:44:12;3.28;;;2.10;;
43801;SDS011;29429;51.074;13.764;2022-08-30T14:46:41;7.97;;;2.40;;
43801;SDS011;29429;51.074;13.764;2022-08-30T14:49:09;2.80;;;2.20;;
43801;SDS011;29429;51.074;13.764;2022-08-30T14:51:38;4.70;;;2.30;;
43801;SDS011;29429;51.074;13.764;2022-08-30T14:54:06;2.45;;;2.00;;
43801;SDS011;29429;51.074;13.764;2022-08-30T14:56:35;2.83;;;2.10;;
43801;SDS011;29429;51.074;13.764;2022-08-30T14:59:05;7.20;;;2.40;;
43801;SDS011;29429;51.074;13.764;2022-08-30T15:01:33;2.90;;;1.95;;
43801;SDS011;29429;51.074;13.764;2022-08-30T15:04:02;3.33;;;1.80;;
43801;SDS011;29429;51.074;13.764;2022-08-30T15:06:33;2.90;;;2.20;;
43801;SDS011;29429;51.074;13.764;2022-08-30T15:09:02;4.45;;;2.25;;
43801;SDS011;29429;51.074;13.764;2022-08-30T15:11:32;3.53;;;2.50;;
43801;SDS011;29429;51.074;13.764;2022-08-30T15:14:00;4.53;;;2.20;;
43801;SDS011;29429;51.074;13.764;2022-08-30T15:16:28;2.42;;;2.00;;
43801;SDS011;29429;51.074;13.764;2022-08-30T15:19:11;4.20;;;2.03;;
43801;SDS011;29429;51.074;13.764;2022-08-30T15:21:40;2.25;;;1.90;;
43801;SDS011;29429;51.074;13.764;2022-08-30T15:24:12;2.75;;;1.75;;
43801;SDS011;29429;51.074;13.764;2022-08-30T15:26:50;2.63;;;1.95;;
43801;SDS011;29429;51.074;13.764;2022-08-30T15:29:18;1.92;;;1.63;;
43801;SDS011;29429;51.074;13.764;2022-08-30T15:31:47;3.72;;;1.90;;
43801;SDS011;29429;51.074;13.764;2022-08-30T15:34:18;3.47;;;2.25;;
43801;SDS011;29429;51.074;13.764;2022-08-30T15:36:53;2.60;;;2.08;;
43801;SDS011;29429;51.074;13.764;2022-08-30T15:39:33;3.58;;;2.13;;
43801;SDS011;29429;51.074;13.764;2022-08-30T15:42:00;3.47;;;2.47;;
43801;SDS011;29429;51.074;13.764;2022-08-30T15:44:30;4.00;;;2.15;;
43801;SDS011;29429;51.074;13.764;2022-08-30T15:46:59;1.98;;;1.83;;
43801;SDS011;29429;51.074;13.764;2022-08-30T15:49:26;2.80;;;2.15;;
43801;SDS011;29429;51.074;13.764;2022-08-30T15:51:54;4.25;;;2.00;;
43801;SDS011;29429;51.074;13.764;2022-08-30T15:54:27;3.42;;;2.13;;
43801;SDS011;29429;51.074;13.764;2022-08-30T15:56:55;4.63;;;2.30;;
43801;SDS011;29429;51.074;13.764;2022-08-30T15:59:27;3.42;;;2.13;;
43801;SDS011;29429;51.074;13.764;2022-08-30T16:01:56;2.70;;;2.13;;
43801;SDS011;29429;51.074;13.764;2022-08-30T16:04:24;8.07;;;2.08;;
43801;SDS011;29429;51.074;13.764;2022-08-30T16:06:54;4.07;;;2.17;;
43801;SDS011;29429;51.074;13.764;2022-08-30T16:09:21;4.88;;;2.10;;
43801;SDS011;29429;51.074;13.764;2022-08-30T16:11:56;5.30;;;2.08;;
43801;SDS011;29429;51.074;13.764;2022-08-30T16:14:30;3.60;;;2.00;;
43801;SDS011;29429;51.074;13.764;2022-08-30T16:16:57;2.75;;;1.95;;
43801;SDS011;29429;51.074;13.764;2022-08-30T16:19:25;4.10;;;1.92;;
43801;SDS011;29429;51.074;13.764;2022-08-30T16:21:54;3.72;;;2.20;;
43801;SDS011;29429;51.074;13.764;2022-08-30T16:24:22;3.03;;;1.90;;
43801;SDS011;29429;51.074;13.764;2022-08-30T16:26:50;2.35;;;1.80;;
43801;SDS011;29429;51.074;13.764;2022-08-30T16:29:17;2.92;;;2.05;;
43801;SDS011;29429;51.074;13.764;2022-08-30T16:31:45;6.13;;;4.10;;
43801;SDS011;29429;51.074;13.764;2022-08-30T16:34:14;2.88;;;2.38;;
43801;SDS011;29429;51.074;13.764;2022-08-30T16:36:45;2.85;;;1.92;;
43801;SDS011;29429;51.074;13.764;2022-08-30T16:39:12;3.97;;;2.47;;
43801;SDS011;29429;51.074;13.764;2022-08-30T16:41:40;3.17;;;2.47;;
43801;SDS011;29429;51.074;13.764;2022-08-30T16:44:10;4.05;;;2.05;;
43801;SDS011;29429;51.074;13.764;2022-08-30T16:46:38;3.85;;;2.47;;
43801;SDS011;29429;51.074;13.764;2022-08-30T16:49:06;2.85;;;2.10;;
43801;SDS011;29429;51.074;13.764;2022-08-30T16:51:34;4.00;;;2.45;;